Flood From: 18-02-2018 16:00 Until: 19-02-2018 16:00 warning for: Flood Level: Yellow info button

Although rather usual in this region, locally or potentially dangerous phenomena are expected. (such as local winds, summer thunderstorms, rising streams or high waves) Be aware and pay attention to the latest weather updates, especially if you carry out activities exposed to weather or close to a stream or shoreline. 


Meteo18 Weather Cam more information Meteo18 Weather Cam


Thunder radar more information blitzortung!


Rain radar more information rain snow radar


Visit our other weather sites:

Template documentation
and downloads

And another site



Weather Underground History page Text

Daily Summary for December 25, 2017 Units:  Both    English   Metric
« Previous Day
Next Day »
Daily Weekly Monthly Yearly Custom
  High: Low: Average:
Temperature: TemperatureC °F /  -17.8 °C 0.9 °F /  -17.3 °C 2.4 °F /  -16.4 °C
Dew Point: DewpointC °F /  -17.8 °C 0.5 °F /  -17.5 °C 1.7 °F /  -16.8 °C
Humidity: Humidity % 93 % 95 %
Wind Speed: WindSpeedKMH mph /  0 km/h - 6 mph /  9.7 km/h
Wind Gust: WindSpeedGustKMH mph /  0 km/h - -
Wind:- - SSW
Pressure: PressurehPa in /  0 hPa 1011.7 in /  34256.2 hPa -
Precipitation: 0.0 in /  0 mm    
Historical Graphs
 
 
Tabular Data for December 25, 2017
Time Temperature Dew Point Pressure Wind Wind Speed Wind Gust Humidity Rainfall Rate (Hourly)
TemperatureC °F /  -17.8 °C DewpointC °F /  -17.8 °C PressurehPa in /  0 hPa Calm     Humidity % HourlyPrecipMM in /  0 mm
00:02 4.2 °F /  -15.4 °C 3.3 °F /  -15.9 °C 1028.0 in /  34808.1 hPa Calm   8.0 mph /  12.9 km/h 94 % 0.0 in /  0 mm
00:12 4.2 °F /  -15.4 °C 3.3 °F /  -15.9 °C 1028.0 in /  34808.1 hPa ESE 1.6 mph /  2.6 km/h 8.0 mph /  12.9 km/h 94 % 0.0 in /  0 mm
00:17 4.2 °F /  -15.4 °C 3.3 °F /  -15.9 °C 1028.0 in /  34808.1 hPa Calm   6.4 mph /  10.3 km/h 94 % 0.0 in /  0 mm
00:22 4.1 °F /  -15.5 °C 3.2 °F /  -16 °C 1028.0 in /  34808.1 hPa SSW 4.8 mph /  7.7 km/h 4.8 mph /  7.7 km/h 94 % 0.0 in /  0 mm
00:27 4.1 °F /  -15.5 °C 3.2 °F /  -16 °C 1027.7 in /  34797.9 hPa SE 1.6 mph /  2.6 km/h 4.8 mph /  7.7 km/h 94 % 0.0 in /  0 mm
00:32 4.1 °F /  -15.5 °C 3.2 °F /  -16 °C 1027.7 in /  34797.9 hPa ESE 3.2 mph /  5.1 km/h 8.0 mph /  12.9 km/h 94 % 0.0 in /  0 mm
00:42 4.1 °F /  -15.5 °C 3.2 °F /  -16 °C 1027.7 in /  34797.9 hPa ESE 1.6 mph /  2.6 km/h 4.8 mph /  7.7 km/h 94 % 0.0 in /  0 mm
00:47 4.1 °F /  -15.5 °C 3.4 °F /  -15.9 °C 1027.7 in /  34797.9 hPa Calm   4.8 mph /  7.7 km/h 95 % 0.0 in /  0 mm
00:57 4.1 °F /  -15.5 °C 3.4 °F /  -15.9 °C 1027.7 in /  34797.9 hPa SE 3.2 mph /  5.1 km/h 4.8 mph /  7.7 km/h 95 % 0.0 in /  0 mm
01:02 4.1 °F /  -15.5 °C 3.4 °F /  -15.9 °C 1027.7 in /  34797.9 hPa Calm   4.8 mph /  7.7 km/h 95 % 0.0 in /  0 mm
01:12 4.0 °F /  -15.6 °C 3.3 °F /  -15.9 °C 1027.3 in /  34784.4 hPa SSW 8.0 mph /  12.9 km/h 8.0 mph /  12.9 km/h 95 % 0.0 in /  0 mm
01:17 3.9 °F /  -15.6 °C 3.2 °F /  -16 °C 1027.3 in /  34784.4 hPa SSE 3.2 mph /  5.1 km/h 8.0 mph /  12.9 km/h 95 % 0.0 in /  0 mm
01:22 3.9 °F /  -15.6 °C 3.2 °F /  -16 °C 1027.3 in /  34784.4 hPa SSW 1.6 mph /  2.6 km/h 8.0 mph /  12.9 km/h 95 % 0.0 in /  0 mm
01:27 3.9 °F /  -15.6 °C 3.2 °F /  -16 °C 1027.3 in /  34784.4 hPa SW 8.0 mph /  12.9 km/h 8.0 mph /  12.9 km/h 95 % 0.0 in /  0 mm
01:32 3.9 °F /  -15.6 °C 3.2 °F /  -16 °C 1027.0 in /  34774.2 hPa SW 3.2 mph /  5.1 km/h 8.0 mph /  12.9 km/h 95 % 0.0 in /  0 mm
01:37 3.9 °F /  -15.6 °C 3.2 °F /  -16 °C 1027.0 in /  34774.2 hPa SSW 4.8 mph /  7.7 km/h 12.9 mph /  20.8 km/h 95 % 0.0 in /  0 mm
01:42 3.8 °F /  -15.7 °C 3.1 °F /  -16.1 °C 1027.0 in /  34774.2 hPa SW 6.4 mph /  10.3 km/h 12.9 mph /  20.8 km/h 95 % 0.0 in /  0 mm
01:52 3.8 °F /  -15.7 °C 3.1 °F /  -16.1 °C 1027.0 in /  34774.2 hPa SSW 4.8 mph /  7.7 km/h 12.9 mph /  20.8 km/h 95 % 0.0 in /  0 mm
01:57 3.8 °F /  -15.7 °C 3.1 °F /  -16.1 °C 1027.0 in /  34774.2 hPa SSE 1.6 mph /  2.6 km/h 9.7 mph /  15.6 km/h 95 % 0.0 in /  0 mm
02:02 3.8 °F /  -15.7 °C 3.1 °F /  -16.1 °C 1026.6 in /  34760.7 hPa SE 1.6 mph /  2.6 km/h 9.7 mph /  15.6 km/h 95 % 0.0 in /  0 mm
02:12 3.7 °F /  -15.7 °C 3.0 °F /  -16.1 °C 1026.6 in /  34760.7 hPa South 1.6 mph /  2.6 km/h 8.0 mph /  12.9 km/h 95 % 0.0 in /  0 mm
02:17 3.7 °F /  -15.7 °C 3.0 °F /  -16.1 °C 1026.6 in /  34760.7 hPa SE 3.2 mph /  5.1 km/h 8.0 mph /  12.9 km/h 95 % 0.0 in /  0 mm
02:22 3.7 °F /  -15.7 °C 3.0 °F /  -16.1 °C 1026.6 in /  34760.7 hPa Calm   8.0 mph /  12.9 km/h 95 % 0.0 in /  0 mm
02:27 3.7 °F /  -15.7 °C 3.1 °F /  -16.1 °C 1026.6 in /  34760.7 hPa South 1.6 mph /  2.6 km/h 8.0 mph /  12.9 km/h 96 % 0.0 in /  0 mm
02:32 3.7 °F /  -15.7 °C 3.0 °F /  -16.1 °C 1026.3 in /  34750.5 hPa SSE 4.8 mph /  7.7 km/h 8.0 mph /  12.9 km/h 95 % 0.0 in /  0 mm
02:37 3.6 °F /  -15.8 °C 2.9 °F /  -16.2 °C 1026.3 in /  34750.5 hPa SE 4.8 mph /  7.7 km/h 8.0 mph /  12.9 km/h 95 % 0.0 in /  0 mm
02:42 3.6 °F /  -15.8 °C 3.0 °F /  -16.1 °C 1026.3 in /  34750.5 hPa SE 1.6 mph /  2.6 km/h 8.0 mph /  12.9 km/h 96 % 0.0 in /  0 mm
02:47 3.6 °F /  -15.8 °C 3.0 °F /  -16.1 °C 1026.3 in /  34750.5 hPa SE 1.6 mph /  2.6 km/h 8.0 mph /  12.9 km/h 96 % 0.0 in /  0 mm
02:52 3.5 °F /  -15.8 °C 2.9 °F /  -16.2 °C 1026.3 in /  34750.5 hPa SE 1.6 mph /  2.6 km/h 8.0 mph /  12.9 km/h 96 % 0.0 in /  0 mm
02:57 3.4 °F /  -15.9 °C 2.8 °F /  -16.2 °C 1026.3 in /  34750.5 hPa SSE 1.6 mph /  2.6 km/h 8.0 mph /  12.9 km/h 96 % 0.0 in /  0 mm
03:02 3.4 °F /  -15.9 °C 2.8 °F /  -16.2 °C 1026.3 in /  34750.5 hPa SE 3.2 mph /  5.1 km/h 8.0 mph /  12.9 km/h 96 % 0.0 in /  0 mm
03:12 3.3 °F /  -15.9 °C 2.7 °F /  -16.3 °C 1026.3 in /  34750.5 hPa SSW 1.6 mph /  2.6 km/h 8.0 mph /  12.9 km/h 96 % 0.0 in /  0 mm
03:17 3.3 °F /  -15.9 °C 2.7 °F /  -16.3 °C 1026.3 in /  34750.5 hPa Calm   11.3 mph /  18.2 km/h 96 % 0.0 in /  0 mm
03:22 3.3 °F /  -15.9 °C 2.7 °F /  -16.3 °C 1026.3 in /  34750.5 hPa Calm   11.3 mph /  18.2 km/h 96 % 0.0 in /  0 mm
03:32 3.2 °F /  -16 °C 2.6 °F /  -16.3 °C 1026.0 in /  34740.4 hPa SW 8.0 mph /  12.9 km/h 8.0 mph /  12.9 km/h 96 % 0.0 in /  0 mm
03:37 3.2 °F /  -16 °C 2.6 °F /  -16.3 °C 1026.0 in /  34740.4 hPa SSW 4.8 mph /  7.7 km/h 12.9 mph /  20.8 km/h 96 % 0.0 in /  0 mm
03:42 3.2 °F /  -16 °C 2.6 °F /  -16.3 °C 1026.0 in /  34740.4 hPa SSW 4.8 mph /  7.7 km/h 12.9 mph /  20.8 km/h 96 % 0.0 in /  0 mm
03:52 3.2 °F /  -16 °C 2.6 °F /  -16.3 °C 1025.6 in /  34726.8 hPa SSE 8.0 mph /  12.9 km/h 12.9 mph /  20.8 km/h 96 % 0.0 in /  0 mm
03:57 3.1 °F /  -16.1 °C 2.5 °F /  -16.4 °C 1025.6 in /  34726.8 hPa Calm   9.7 mph /  15.6 km/h 96 % 0.0 in /  0 mm
04:02 3.1 °F /  -16.1 °C 2.5 °F /  -16.4 °C 1025.6 in /  34726.8 hPa SSE 1.6 mph /  2.6 km/h 9.7 mph /  15.6 km/h 96 % 0.0 in /  0 mm
04:07 3.2 °F /  -16 °C 2.6 °F /  -16.3 °C 1025.6 in /  34726.8 hPa SSW 4.8 mph /  7.7 km/h 9.7 mph /  15.6 km/h 96 % 0.0 in /  0 mm
04:17 3.2 °F /  -16 °C 2.6 °F /  -16.3 °C 1025.6 in /  34726.8 hPa Calm   4.8 mph /  7.7 km/h 96 % 0.0 in /  0 mm
04:22 3.2 °F /  -16 °C 2.6 °F /  -16.3 °C 1025.6 in /  34726.8 hPa Calm   4.8 mph /  7.7 km/h 96 % 0.0 in /  0 mm
04:32 3.1 °F /  -16.1 °C 2.5 °F /  -16.4 °C 1025.3 in /  34716.7 hPa SW 9.7 mph /  15.6 km/h 9.7 mph /  15.6 km/h 96 % 0.0 in /  0 mm
04:37 3.1 °F /  -16.1 °C 2.5 °F /  -16.4 °C 1025.3 in /  34716.7 hPa South 3.2 mph /  5.1 km/h 11.3 mph /  18.2 km/h 96 % 0.0 in /  0 mm
04:42 3.1 °F /  -16.1 °C 2.5 °F /  -16.4 °C 1025.3 in /  34716.7 hPa SSW 4.8 mph /  7.7 km/h 11.3 mph /  18.2 km/h 96 % 0.0 in /  0 mm
04:47 3.1 °F /  -16.1 °C 2.5 °F /  -16.4 °C 1025.3 in /  34716.7 hPa SE 3.2 mph /  5.1 km/h 11.3 mph /  18.2 km/h 96 % 0.0 in /  0 mm
04:52 3.1 °F /  -16.1 °C 2.5 °F /  -16.4 °C 1024.9 in /  34703.1 hPa South 6.4 mph /  10.3 km/h 11.3 mph /  18.2 km/h 96 % 0.0 in /  0 mm
04:57 3.1 °F /  -16.1 °C 2.5 °F /  -16.4 °C 1024.9 in /  34703.1 hPa SW 6.4 mph /  10.3 km/h 11.3 mph /  18.2 km/h 96 % 0.0 in /  0 mm
05:02 3.1 °F /  -16.1 °C 2.5 °F /  -16.4 °C 1024.9 in /  34703.1 hPa SW 6.4 mph /  10.3 km/h 11.3 mph /  18.2 km/h 96 % 0.0 in /  0 mm
05:07 3.1 °F /  -16.1 °C 2.5 °F /  -16.4 °C 1024.9 in /  34703.1 hPa SW 9.7 mph /  15.6 km/h 11.3 mph /  18.2 km/h 96 % 0.0 in /  0 mm
05:12 3.1 °F /  -16.1 °C 2.5 °F /  -16.4 °C 1024.9 in /  34703.1 hPa South 6.4 mph /  10.3 km/h 11.3 mph /  18.2 km/h 96 % 0.0 in /  0 mm
05:17 3.1 °F /  -16.1 °C 2.5 °F /  -16.4 °C 1024.9 in /  34703.1 hPa SW 6.4 mph /  10.3 km/h 12.9 mph /  20.8 km/h 96 % 0.0 in /  0 mm
05:22 3.1 °F /  -16.1 °C 2.5 °F /  -16.4 °C 1024.9 in /  34703.1 hPa SSE 1.6 mph /  2.6 km/h 12.9 mph /  20.8 km/h 96 % 0.0 in /  0 mm
05:32 3.0 °F /  -16.1 °C 2.4 °F /  -16.4 °C 1024.6 in /  34693 hPa SSE 1.6 mph /  2.6 km/h 12.9 mph /  20.8 km/h 96 % 0.0 in /  0 mm
05:42 3.0 °F /  -16.1 °C 2.4 °F /  -16.4 °C 1024.6 in /  34693 hPa SW 1.6 mph /  2.6 km/h 9.7 mph /  15.6 km/h 96 % 0.0 in /  0 mm
05:52 2.9 °F /  -16.2 °C 2.3 °F /  -16.5 °C 1024.6 in /  34693 hPa SW 6.4 mph /  10.3 km/h 9.7 mph /  15.6 km/h 96 % 0.0 in /  0 mm
06:02 2.8 °F /  -16.2 °C 2.2 °F /  -16.6 °C 1024.3 in /  34682.8 hPa SW 8.0 mph /  12.9 km/h 9.7 mph /  15.6 km/h 96 % 0.0 in /  0 mm
06:07 2.8 °F /  -16.2 °C 2.2 °F /  -16.6 °C 1024.6 in /  34693 hPa SSW 6.4 mph /  10.3 km/h 14.5 mph /  23.3 km/h 96 % 0.0 in /  0 mm
06:12 2.8 °F /  -16.2 °C 2.2 °F /  -16.6 °C 1024.3 in /  34682.8 hPa SSW 6.4 mph /  10.3 km/h 14.5 mph /  23.3 km/h 96 % 0.0 in /  0 mm
06:17 2.7 °F /  -16.3 °C 2.1 °F /  -16.6 °C 1024.6 in /  34693 hPa SSW 6.4 mph /  10.3 km/h 12.9 mph /  20.8 km/h 96 % 0.0 in /  0 mm
06:22 2.6 °F /  -16.3 °C 2.0 °F /  -16.7 °C 1024.3 in /  34682.8 hPa SW 6.4 mph /  10.3 km/h 12.9 mph /  20.8 km/h 96 % 0.0 in /  0 mm
06:32 2.5 °F /  -16.4 °C 1.9 °F /  -16.7 °C 1024.3 in /  34682.8 hPa SSW 8.0 mph /  12.9 km/h 17.7 mph /  28.5 km/h 96 % 0.0 in /  0 mm
06:42 2.4 °F /  -16.4 °C 1.8 °F /  -16.8 °C 1024.3 in /  34682.8 hPa SSW 1.6 mph /  2.6 km/h 14.5 mph /  23.3 km/h 96 % 0.0 in /  0 mm
06:52 2.3 °F /  -16.5 °C 1.7 °F /  -16.8 °C 1024.3 in /  34682.8 hPa SW 8.0 mph /  12.9 km/h 14.5 mph /  23.3 km/h 96 % 0.0 in /  0 mm
06:57 2.3 °F /  -16.5 °C 1.9 °F /  -16.7 °C 1024.3 in /  34682.8 hPa WSW 8.0 mph /  12.9 km/h 14.5 mph /  23.3 km/h 97 % 0.0 in /  0 mm
07:02 2.3 °F /  -16.5 °C 1.9 °F /  -16.7 °C 1024.3 in /  34682.8 hPa South 4.8 mph /  7.7 km/h 14.5 mph /  23.3 km/h 97 % 0.0 in /  0 mm
07:12 2.1 °F /  -16.6 °C 1.5 °F /  -16.9 °C 1024.3 in /  34682.8 hPa SSW 4.8 mph /  7.7 km/h 14.5 mph /  23.3 km/h 96 % 0.0 in /  0 mm
07:17 2.0 °F /  -16.7 °C 1.4 °F /  -17 °C 1023.9 in /  34669.3 hPa SSE 8.0 mph /  12.9 km/h 14.5 mph /  23.3 km/h 96 % 0.0 in /  0 mm
07:22 2.0 °F /  -16.7 °C 1.6 °F /  -16.9 °C 1023.9 in /  34669.3 hPa SSE 1.6 mph /  2.6 km/h 16.1 mph /  25.9 km/h 97 % 0.0 in /  0 mm
07:27 2.0 °F /  -16.7 °C 1.6 °F /  -16.9 °C 1023.9 in /  34669.3 hPa South 3.2 mph /  5.1 km/h 16.1 mph /  25.9 km/h 97 % 0.0 in /  0 mm
07:32 1.9 °F /  -16.7 °C 1.5 °F /  -16.9 °C 1023.9 in /  34669.3 hPa SW 4.8 mph /  7.7 km/h 11.3 mph /  18.2 km/h 97 % 0.0 in /  0 mm
07:37 1.9 °F /  -16.7 °C 1.5 °F /  -16.9 °C 1023.6 in /  34659.1 hPa SW 9.7 mph /  15.6 km/h 11.3 mph /  18.2 km/h 97 % 0.0 in /  0 mm
07:42 1.8 °F /  -16.8 °C 1.4 °F /  -17 °C 1023.9 in /  34669.3 hPa SSW 11.3 mph /  18.2 km/h 14.5 mph /  23.3 km/h 97 % 0.0 in /  0 mm
07:47 1.8 °F /  -16.8 °C 1.4 °F /  -17 °C 1023.6 in /  34659.1 hPa SSW 8.0 mph /  12.9 km/h 14.5 mph /  23.3 km/h 97 % 0.0 in /  0 mm
07:52 1.8 °F /  -16.8 °C 1.4 °F /  -17 °C 1023.9 in /  34669.3 hPa SW 9.7 mph /  15.6 km/h 16.1 mph /  25.9 km/h 97 % 0.0 in /  0 mm
07:57 1.7 °F /  -16.8 °C 1.3 °F /  -17.1 °C 1023.6 in /  34659.1 hPa South 1.6 mph /  2.6 km/h 16.1 mph /  25.9 km/h 97 % 0.0 in /  0 mm
08:07 1.7 °F /  -16.8 °C 1.3 °F /  -17.1 °C 1023.6 in /  34659.1 hPa SSW 1.6 mph /  2.6 km/h 16.1 mph /  25.9 km/h 97 % 0.0 in /  0 mm
08:12 1.7 °F /  -16.8 °C 1.3 °F /  -17.1 °C 1023.6 in /  34659.1 hPa SSW 9.7 mph /  15.6 km/h 12.9 mph /  20.8 km/h 97 % 0.0 in /  0 mm
08:17 1.7 °F /  -16.8 °C 1.3 °F /  -17.1 °C 1023.6 in /  34659.1 hPa SSW 8.0 mph /  12.9 km/h 12.9 mph /  20.8 km/h 97 % 0.0 in /  0 mm
08:22 1.7 °F /  -16.8 °C 1.3 °F /  -17.1 °C 1023.6 in /  34659.1 hPa SW 9.7 mph /  15.6 km/h 11.3 mph /  18.2 km/h 97 % 0.0 in /  0 mm
08:32 1.6 °F /  -16.9 °C 1.2 °F /  -17.1 °C 1023.2 in /  34645.6 hPa SSW 3.2 mph /  5.1 km/h 17.7 mph /  28.5 km/h 97 % 0.0 in /  0 mm
08:37 1.6 °F /  -16.9 °C 1.2 °F /  -17.1 °C 1023.2 in /  34645.6 hPa SSW 9.7 mph /  15.6 km/h 17.7 mph /  28.5 km/h 97 % 0.0 in /  0 mm
08:42 1.7 °F /  -16.8 °C 1.3 °F /  -17.1 °C 1023.2 in /  34645.6 hPa SSW 6.4 mph /  10.3 km/h 17.7 mph /  28.5 km/h 97 % 0.0 in /  0 mm
08:47 1.7 °F /  -16.8 °C 1.3 °F /  -17.1 °C 1023.2 in /  34645.6 hPa SW 4.8 mph /  7.7 km/h 17.7 mph /  28.5 km/h 97 % 0.0 in /  0 mm
08:52 1.8 °F /  -16.8 °C 1.4 °F /  -17 °C 1023.2 in /  34645.6 hPa South 1.6 mph /  2.6 km/h 14.5 mph /  23.3 km/h 97 % 0.0 in /  0 mm
08:57 1.8 °F /  -16.8 °C 1.4 °F /  -17 °C 1023.2 in /  34645.6 hPa South 6.4 mph /  10.3 km/h 14.5 mph /  23.3 km/h 97 % 0.0 in /  0 mm
09:02 1.8 °F /  -16.8 °C 1.4 °F /  -17 °C 1023.2 in /  34645.6 hPa South 3.2 mph /  5.1 km/h 11.3 mph /  18.2 km/h 97 % 0.0 in /  0 mm
09:12 1.9 °F /  -16.7 °C 1.5 °F /  -16.9 °C 1022.9 in /  34635.4 hPa SSW 6.4 mph /  10.3 km/h 11.3 mph /  18.2 km/h 97 % 0.0 in /  0 mm
09:17 2.0 °F /  -16.7 °C 1.6 °F /  -16.9 °C 1022.9 in /  34635.4 hPa SW 3.2 mph /  5.1 km/h 11.3 mph /  18.2 km/h 97 % 0.0 in /  0 mm
09:27 2.1 °F /  -16.6 °C 1.7 °F /  -16.8 °C 1022.9 in /  34635.4 hPa SSW 4.8 mph /  7.7 km/h 9.7 mph /  15.6 km/h 97 % 0.0 in /  0 mm
09:37 2.2 °F /  -16.6 °C 1.6 °F /  -16.9 °C 1022.9 in /  34635.4 hPa SW 3.2 mph /  5.1 km/h 8.0 mph /  12.9 km/h 96 % 0.0 in /  0 mm
09:42 2.2 °F /  -16.6 °C 1.6 °F /  -16.9 °C 1022.9 in /  34635.4 hPa South 6.4 mph /  10.3 km/h 9.7 mph /  15.6 km/h 96 % 0.0 in /  0 mm
09:47 2.2 °F /  -16.6 °C 1.6 °F /  -16.9 °C 1022.9 in /  34635.4 hPa SW 11.3 mph /  18.2 km/h 11.3 mph /  18.2 km/h 96 % 0.0 in /  0 mm
09:52 2.3 °F /  -16.5 °C 1.7 °F /  -16.8 °C 1022.9 in /  34635.4 hPa SSW 9.7 mph /  15.6 km/h 12.9 mph /  20.8 km/h 96 % 0.0 in /  0 mm
10:02 2.1 °F /  -16.6 °C 1.5 °F /  -16.9 °C 1022.9 in /  34635.4 hPa SW 4.8 mph /  7.7 km/h 12.9 mph /  20.8 km/h 96 % 0.0 in /  0 mm
10:07 1.9 °F /  -16.7 °C 1.3 °F /  -17.1 °C 1022.9 in /  34635.4 hPa WSW 16.1 mph /  25.9 km/h 16.1 mph /  25.9 km/h 96 % 0.0 in /  0 mm
10:12 1.9 °F /  -16.7 °C 1.3 °F /  -17.1 °C 1022.9 in /  34635.4 hPa SW 12.9 mph /  20.8 km/h 17.7 mph /  28.5 km/h 96 % 0.0 in /  0 mm
10:17 1.9 °F /  -16.7 °C 1.2 °F /  -17.1 °C 1022.9 in /  34635.4 hPa SSW 8.0 mph /  12.9 km/h 17.7 mph /  28.5 km/h 95 % 0.0 in /  0 mm
10:22 1.8 °F /  -16.8 °C 1.1 °F /  -17.2 °C 1023.2 in /  34645.6 hPa SSW 4.8 mph /  7.7 km/h 17.7 mph /  28.5 km/h 95 % 0.0 in /  0 mm
10:32 1.8 °F /  -16.8 °C 0.9 °F /  -17.3 °C 1022.9 in /  34635.4 hPa SSW 16.1 mph /  25.9 km/h 17.7 mph /  28.5 km/h 94 % 0.0 in /  0 mm
10:42 1.7 °F /  -16.8 °C 0.8 °F /  -17.3 °C 1023.2 in /  34645.6 hPa WSW 8.0 mph /  12.9 km/h 19.3 mph /  31.1 km/h 94 % 0.0 in /  0 mm
10:52 1.8 °F /  -16.8 °C 0.9 °F /  -17.3 °C 1023.2 in /  34645.6 hPa WSW 9.7 mph /  15.6 km/h 17.7 mph /  28.5 km/h 94 % 0.0 in /  0 mm
11:02 1.8 °F /  -16.8 °C 0.9 °F /  -17.3 °C 1023.2 in /  34645.6 hPa SW 6.4 mph /  10.3 km/h 16.1 mph /  25.9 km/h 94 % 0.0 in /  0 mm
11:07 1.9 °F /  -16.7 °C 1.2 °F /  -17.1 °C 1023.2 in /  34645.6 hPa SW 4.8 mph /  7.7 km/h 16.1 mph /  25.9 km/h 95 % 0.0 in /  0 mm
11:17 1.9 °F /  -16.7 °C 1.2 °F /  -17.1 °C 1022.9 in /  34635.4 hPa SW 6.4 mph /  10.3 km/h 17.7 mph /  28.5 km/h 95 % 0.0 in /  0 mm
11:22 1.9 °F /  -16.7 °C 1.2 °F /  -17.1 °C 1022.9 in /  34635.4 hPa SW 8.0 mph /  12.9 km/h 17.7 mph /  28.5 km/h 95 % 0.0 in /  0 mm
11:32 1.9 °F /  -16.7 °C 1.2 °F /  -17.1 °C 1022.6 in /  34625.2 hPa SSW 14.5 mph /  23.3 km/h 17.7 mph /  28.5 km/h 95 % 0.0 in /  0 mm
11:37 1.9 °F /  -16.7 °C 1.2 °F /  -17.1 °C 1022.6 in /  34625.2 hPa SW 9.7 mph /  15.6 km/h 17.7 mph /  28.5 km/h 95 % 0.0 in /  0 mm
11:42 2.0 °F /  -16.7 °C 1.3 °F /  -17.1 °C 1022.6 in /  34625.2 hPa SW 16.1 mph /  25.9 km/h 16.1 mph /  25.9 km/h 95 % 0.0 in /  0 mm
11:47 2.0 °F /  -16.7 °C 1.3 °F /  -17.1 °C 1022.2 in /  34611.7 hPa SW 12.9 mph /  20.8 km/h 16.1 mph /  25.9 km/h 95 % 0.0 in /  0 mm
11:52 2.0 °F /  -16.7 °C 1.3 °F /  -17.1 °C 1022.2 in /  34611.7 hPa SW 12.9 mph /  20.8 km/h 17.7 mph /  28.5 km/h 95 % 0.0 in /  0 mm
11:57 2.0 °F /  -16.7 °C 1.3 °F /  -17.1 °C 1022.2 in /  34611.7 hPa SW 9.7 mph /  15.6 km/h 17.7 mph /  28.5 km/h 95 % 0.0 in /  0 mm
12:02 2.1 °F /  -16.6 °C 1.4 °F /  -17 °C 1022.2 in /  34611.7 hPa SSW 8.0 mph /  12.9 km/h 17.7 mph /  28.5 km/h 95 % 0.0 in /  0 mm
12:07 2.1 °F /  -16.6 °C 1.4 °F /  -17 °C 1021.9 in /  34601.5 hPa SW 9.7 mph /  15.6 km/h 17.7 mph /  28.5 km/h 95 % 0.0 in /  0 mm
12:12 2.2 °F /  -16.6 °C 1.5 °F /  -16.9 °C 1021.9 in /  34601.5 hPa SW 11.3 mph /  18.2 km/h 16.1 mph /  25.9 km/h 95 % 0.0 in /  0 mm
12:17 2.2 °F /  -16.6 °C 1.5 °F /  -16.9 °C 1021.9 in /  34601.5 hPa SW 12.9 mph /  20.8 km/h 16.1 mph /  25.9 km/h 95 % 0.0 in /  0 mm
12:22 2.2 °F /  -16.6 °C 1.5 °F /  -16.9 °C 1021.6 in /  34591.4 hPa SW 11.3 mph /  18.2 km/h 17.7 mph /  28.5 km/h 95 % 0.0 in /  0 mm
12:27 2.2 °F /  -16.6 °C 1.5 °F /  -16.9 °C 1021.6 in /  34591.4 hPa SSW 8.0 mph /  12.9 km/h 17.7 mph /  28.5 km/h 95 % 0.0 in /  0 mm
12:32 2.3 °F /  -16.5 °C 1.6 °F /  -16.9 °C 1021.6 in /  34591.4 hPa SW 14.5 mph /  23.3 km/h 17.7 mph /  28.5 km/h 95 % 0.0 in /  0 mm
12:42 2.3 °F /  -16.5 °C 1.6 °F /  -16.9 °C 1021.2 in /  34577.8 hPa SW 12.9 mph /  20.8 km/h 22.5 mph /  36.2 km/h 95 % 0.0 in /  0 mm
12:47 2.4 °F /  -16.4 °C 1.7 °F /  -16.8 °C 1021.2 in /  34577.8 hPa SW 11.3 mph /  18.2 km/h 22.5 mph /  36.2 km/h 95 % 0.0 in /  0 mm
12:52 2.4 °F /  -16.4 °C 1.7 °F /  -16.8 °C 1020.9 in /  34567.7 hPa WSW 9.7 mph /  15.6 km/h 19.3 mph /  31.1 km/h 95 % 0.0 in /  0 mm
13:02 2.7 °F /  -16.3 °C 2.0 °F /  -16.7 °C 1020.9 in /  34567.7 hPa SW 12.9 mph /  20.8 km/h 19.3 mph /  31.1 km/h 95 % 0.0 in /  0 mm
13:12 2.7 °F /  -16.3 °C 1.8 °F /  -16.8 °C 1020.5 in /  34554.1 hPa SSW 16.1 mph /  25.9 km/h 20.9 mph /  33.6 km/h 94 % 0.0 in /  0 mm
13:17 2.7 °F /  -16.3 °C 1.8 °F /  -16.8 °C 1020.5 in /  34554.1 hPa SW 12.9 mph /  20.8 km/h 20.9 mph /  33.6 km/h 94 % 0.0 in /  0 mm
13:22 2.7 °F /  -16.3 °C 1.8 °F /  -16.8 °C 1020.5 in /  34554.1 hPa SSW 17.7 mph /  28.5 km/h 24.1 mph /  38.8 km/h 94 % 0.0 in /  0 mm
13:32 2.6 °F /  -16.3 °C 1.9 °F /  -16.7 °C 1020.2 in /  34544 hPa SSW 11.3 mph /  18.2 km/h 22.5 mph /  36.2 km/h 95 % 0.0 in /  0 mm
13:42 2.5 °F /  -16.4 °C 1.8 °F /  -16.8 °C 1020.2 in /  34544 hPa SW 11.3 mph /  18.2 km/h 22.5 mph /  36.2 km/h 95 % 0.0 in /  0 mm
13:47 2.5 °F /  -16.4 °C 1.8 °F /  -16.8 °C 1020.2 in /  34544 hPa SW 11.3 mph /  18.2 km/h 22.5 mph /  36.2 km/h 95 % 0.0 in /  0 mm
13:52 2.4 °F /  -16.4 °C 1.7 °F /  -16.8 °C 1019.9 in /  34533.8 hPa WSW 20.9 mph /  33.6 km/h 24.1 mph /  38.8 km/h 95 % 0.0 in /  0 mm
13:57 2.4 °F /  -16.4 °C 1.7 °F /  -16.8 °C 1019.9 in /  34533.8 hPa WSW 16.1 mph /  25.9 km/h 24.1 mph /  38.8 km/h 95 % 0.0 in /  0 mm
14:02 2.4 °F /  -16.4 °C 1.7 °F /  -16.8 °C 1019.9 in /  34533.8 hPa SW 6.4 mph /  10.3 km/h 24.1 mph /  38.8 km/h 95 % 0.0 in /  0 mm
14:12 2.5 °F /  -16.4 °C 1.8 °F /  -16.8 °C 1019.9 in /  34533.8 hPa SW 16.1 mph /  25.9 km/h 27.4 mph /  44.1 km/h 95 % 0.0 in /  0 mm
14:17 2.5 °F /  -16.4 °C 1.6 °F /  -16.9 °C 1019.9 in /  34533.8 hPa WSW 12.9 mph /  20.8 km/h 27.4 mph /  44.1 km/h 94 % 0.0 in /  0 mm
14:22 2.5 °F /  -16.4 °C 1.6 °F /  -16.9 °C 1019.5 in /  34520.3 hPa SW 16.1 mph /  25.9 km/h 27.4 mph /  44.1 km/h 94 % 0.0 in /  0 mm
14:32 2.4 °F /  -16.4 °C 1.4 °F /  -17 °C 1019.5 in /  34520.3 hPa SW 12.9 mph /  20.8 km/h 27.4 mph /  44.1 km/h 93 % 0.0 in /  0 mm
14:37 2.4 °F /  -16.4 °C 1.5 °F /  -16.9 °C 1019.2 in /  34510.1 hPa SW 14.5 mph /  23.3 km/h 27.4 mph /  44.1 km/h 94 % 0.0 in /  0 mm
14:42 2.3 °F /  -16.5 °C 1.3 °F /  -17.1 °C 1019.2 in /  34510.1 hPa WSW 9.7 mph /  15.6 km/h 27.4 mph /  44.1 km/h 93 % 0.0 in /  0 mm
14:52 2.2 °F /  -16.6 °C 1.2 °F /  -17.1 °C 1019.2 in /  34510.1 hPa SW 12.9 mph /  20.8 km/h 20.9 mph /  33.6 km/h 93 % 0.0 in /  0 mm
14:57 2.1 °F /  -16.6 °C 1.2 °F /  -17.1 °C 1019.2 in /  34510.1 hPa SW 9.7 mph /  15.6 km/h 20.9 mph /  33.6 km/h 94 % 0.0 in /  0 mm
15:02 1.9 °F /  -16.7 °C 0.9 °F /  -17.3 °C 1019.2 in /  34510.1 hPa WSW 8.0 mph /  12.9 km/h 19.3 mph /  31.1 km/h 93 % 0.0 in /  0 mm
15:12 2.0 °F /  -16.7 °C 1.0 °F /  -17.2 °C 1018.8 in /  34496.6 hPa SW 6.4 mph /  10.3 km/h 20.9 mph /  33.6 km/h 93 % 0.0 in /  0 mm
15:17 2.0 °F /  -16.7 °C 1.0 °F /  -17.2 °C 1018.8 in /  34496.6 hPa SSW 9.7 mph /  15.6 km/h 20.9 mph /  33.6 km/h 93 % 0.0 in /  0 mm
15:22 2.0 °F /  -16.7 °C 1.0 °F /  -17.2 °C 1018.8 in /  34496.6 hPa SW 8.0 mph /  12.9 km/h 16.1 mph /  25.9 km/h 93 % 0.0 in /  0 mm
15:32 2.0 °F /  -16.7 °C 1.1 °F /  -17.2 °C 1018.8 in /  34496.6 hPa SW 12.9 mph /  20.8 km/h 19.3 mph /  31.1 km/h 94 % 0.0 in /  0 mm
15:42 2.0 °F /  -16.7 °C 1.0 °F /  -17.2 °C 1018.5 in /  34486.4 hPa SSW 4.8 mph /  7.7 km/h 17.7 mph /  28.5 km/h 93 % 0.0 in /  0 mm
15:47 2.1 °F /  -16.6 °C 1.2 °F /  -17.1 °C 1018.5 in /  34486.4 hPa SSW 14.5 mph /  23.3 km/h 17.7 mph /  28.5 km/h 94 % 0.0 in /  0 mm
15:52 2.0 °F /  -16.7 °C 1.0 °F /  -17.2 °C 1018.5 in /  34486.4 hPa SW 9.7 mph /  15.6 km/h 16.1 mph /  25.9 km/h 93 % 0.0 in /  0 mm
16:02 2.1 °F /  -16.6 °C 1.1 °F /  -17.2 °C 1018.2 in /  34476.3 hPa SSW 8.0 mph /  12.9 km/h 16.1 mph /  25.9 km/h 93 % 0.0 in /  0 mm
16:12 2.1 °F /  -16.6 °C 1.1 °F /  -17.2 °C 1017.8 in /  34462.7 hPa South 6.4 mph /  10.3 km/h 16.1 mph /  25.9 km/h 93 % 0.0 in /  0 mm
16:17 2.1 °F /  -16.6 °C 1.1 °F /  -17.2 °C 1017.8 in /  34462.7 hPa SW 6.4 mph /  10.3 km/h 16.1 mph /  25.9 km/h 93 % 0.0 in /  0 mm
16:22 2.2 °F /  -16.6 °C 1.2 °F /  -17.1 °C 1017.8 in /  34462.7 hPa SW 11.3 mph /  18.2 km/h 11.3 mph /  18.2 km/h 93 % 0.0 in /  0 mm
16:27 2.1 °F /  -16.6 °C 1.1 °F /  -17.2 °C 1017.8 in /  34462.7 hPa SW 6.4 mph /  10.3 km/h 11.3 mph /  18.2 km/h 93 % 0.0 in /  0 mm
16:32 2.1 °F /  -16.6 °C 1.2 °F /  -17.1 °C 1017.8 in /  34462.7 hPa South 6.4 mph /  10.3 km/h 14.5 mph /  23.3 km/h 94 % 0.0 in /  0 mm
16:37 2.1 °F /  -16.6 °C 1.2 °F /  -17.1 °C 1017.8 in /  34462.7 hPa SW 4.8 mph /  7.7 km/h 14.5 mph /  23.3 km/h 94 % 0.0 in /  0 mm
16:42 2.2 °F /  -16.6 °C 1.3 °F /  -17.1 °C 1017.8 in /  34462.7 hPa SW 1.6 mph /  2.6 km/h 12.9 mph /  20.8 km/h 94 % 0.0 in /  0 mm
16:47 2.2 °F /  -16.6 °C 1.3 °F /  -17.1 °C 1017.8 in /  34462.7 hPa SW 6.4 mph /  10.3 km/h 12.9 mph /  20.8 km/h 94 % 0.0 in /  0 mm
16:52 2.2 °F /  -16.6 °C 1.3 °F /  -17.1 °C 1017.5 in /  34452.6 hPa SW 3.2 mph /  5.1 km/h 12.9 mph /  20.8 km/h 94 % 0.0 in /  0 mm
16:57 2.3 °F /  -16.5 °C 1.4 °F /  -17 °C 1017.5 in /  34452.6 hPa Calm   8.0 mph /  12.9 km/h 94 % 0.0 in /  0 mm
17:02 2.3 °F /  -16.5 °C 1.4 °F /  -17 °C 1017.5 in /  34452.6 hPa South 1.6 mph /  2.6 km/h 8.0 mph /  12.9 km/h 94 % 0.0 in /  0 mm
17:07 2.4 °F /  -16.4 °C 1.5 °F /  -16.9 °C 1017.5 in /  34452.6 hPa Calm   6.4 mph /  10.3 km/h 94 % 0.0 in /  0 mm
17:12 2.5 °F /  -16.4 °C 1.8 °F /  -16.8 °C 1017.2 in /  34442.4 hPa SSE 1.6 mph /  2.6 km/h 6.4 mph /  10.3 km/h 95 % 0.0 in /  0 mm
17:17 2.6 °F /  -16.3 °C 1.9 °F /  -16.7 °C 1017.2 in /  34442.4 hPa South 3.2 mph /  5.1 km/h 8.0 mph /  12.9 km/h 95 % 0.0 in /  0 mm
17:22 2.6 °F /  -16.3 °C 1.9 °F /  -16.7 °C 1017.2 in /  34442.4 hPa SSE 1.6 mph /  2.6 km/h 8.0 mph /  12.9 km/h 95 % 0.0 in /  0 mm
17:27 2.7 °F /  -16.3 °C 2.0 °F /  -16.7 °C 1016.8 in /  34428.8 hPa South 4.8 mph /  7.7 km/h 9.7 mph /  15.6 km/h 95 % 0.0 in /  0 mm
17:32 2.7 °F /  -16.3 °C 2.0 °F /  -16.7 °C 1016.8 in /  34428.8 hPa SSE 1.6 mph /  2.6 km/h 9.7 mph /  15.6 km/h 95 % 0.0 in /  0 mm
17:42 2.8 °F /  -16.2 °C 2.1 °F /  -16.6 °C 1016.5 in /  34418.7 hPa SE 1.6 mph /  2.6 km/h 11.3 mph /  18.2 km/h 95 % 0.0 in /  0 mm
17:47 2.8 °F /  -16.2 °C 2.1 °F /  -16.6 °C 1016.5 in /  34418.7 hPa Calm   11.3 mph /  18.2 km/h 95 % 0.0 in /  0 mm
17:52 2.8 °F /  -16.2 °C 2.1 °F /  -16.6 °C 1016.5 in /  34418.7 hPa SSW 4.8 mph /  7.7 km/h 8.0 mph /  12.9 km/h 95 % 0.0 in /  0 mm
17:57 2.8 °F /  -16.2 °C 2.1 °F /  -16.6 °C 1016.5 in /  34418.7 hPa South 8.0 mph /  12.9 km/h 12.9 mph /  20.8 km/h 95 % 0.0 in /  0 mm
18:02 2.8 °F /  -16.2 °C 2.1 °F /  -16.6 °C 1016.1 in /  34405.1 hPa South 4.8 mph /  7.7 km/h 12.9 mph /  20.8 km/h 95 % 0.0 in /  0 mm
18:12 2.7 °F /  -16.3 °C 2.0 °F /  -16.7 °C 1016.1 in /  34405.1 hPa South 8.0 mph /  12.9 km/h 14.5 mph /  23.3 km/h 95 % 0.0 in /  0 mm
18:17 2.7 °F /  -16.3 °C 2.0 °F /  -16.7 °C 1016.1 in /  34405.1 hPa South 3.2 mph /  5.1 km/h 16.1 mph /  25.9 km/h 95 % 0.0 in /  0 mm
18:22 2.7 °F /  -16.3 °C 2.0 °F /  -16.7 °C 1016.1 in /  34405.1 hPa SSE 4.8 mph /  7.7 km/h 14.5 mph /  23.3 km/h 95 % 0.0 in /  0 mm
18:27 2.7 °F /  -16.3 °C 2.1 °F /  -16.6 °C 1016.1 in /  34405.1 hPa South 4.8 mph /  7.7 km/h 14.5 mph /  23.3 km/h 96 % 0.0 in /  0 mm
18:32 2.8 °F /  -16.2 °C 2.2 °F /  -16.6 °C 1016.1 in /  34405.1 hPa SSE 6.4 mph /  10.3 km/h 9.7 mph /  15.6 km/h 96 % 0.0 in /  0 mm
18:42 2.8 °F /  -16.2 °C 2.2 °F /  -16.6 °C 1015.8 in /  34395 hPa SE 3.2 mph /  5.1 km/h 9.7 mph /  15.6 km/h 96 % 0.0 in /  0 mm
18:52 2.6 °F /  -16.3 °C 1.9 °F /  -16.7 °C 1015.8 in /  34395 hPa SSE 6.4 mph /  10.3 km/h 8.0 mph /  12.9 km/h 95 % 0.0 in /  0 mm
18:57 2.6 °F /  -16.3 °C 1.9 °F /  -16.7 °C 1015.8 in /  34395 hPa SSE 1.6 mph /  2.6 km/h 8.0 mph /  12.9 km/h 95 % 0.0 in /  0 mm
19:02 2.5 °F /  -16.4 °C 1.8 °F /  -16.8 °C 1015.8 in /  34395 hPa SE 4.8 mph /  7.7 km/h 9.7 mph /  15.6 km/h 95 % 0.0 in /  0 mm
19:12 2.4 °F /  -16.4 °C 1.7 °F /  -16.8 °C 1015.8 in /  34395 hPa SSE 4.8 mph /  7.7 km/h 11.3 mph /  18.2 km/h 95 % 0.0 in /  0 mm
19:17 2.3 °F /  -16.5 °C 1.6 °F /  -16.9 °C 1015.8 in /  34395 hPa South 3.2 mph /  5.1 km/h 11.3 mph /  18.2 km/h 95 % 0.0 in /  0 mm
19:22 2.2 °F /  -16.6 °C 1.6 °F /  -16.9 °C 1015.8 in /  34395 hPa SW 9.7 mph /  15.6 km/h 11.3 mph /  18.2 km/h 96 % 0.0 in /  0 mm
19:32 2.1 °F /  -16.6 °C 1.5 °F /  -16.9 °C 1015.5 in /  34384.8 hPa SSE 3.2 mph /  5.1 km/h 12.9 mph /  20.8 km/h 96 % 0.0 in /  0 mm
19:37 1.9 °F /  -16.7 °C 1.2 °F /  -17.1 °C 1015.5 in /  34384.8 hPa SSW 11.3 mph /  18.2 km/h 12.9 mph /  20.8 km/h 95 % 0.0 in /  0 mm
19:42 1.8 °F /  -16.8 °C 1.2 °F /  -17.1 °C 1015.5 in /  34384.8 hPa SSE 4.8 mph /  7.7 km/h 12.9 mph /  20.8 km/h 96 % 0.0 in /  0 mm
19:47 1.7 °F /  -16.8 °C 1.1 °F /  -17.2 °C 1015.5 in /  34384.8 hPa South 6.4 mph /  10.3 km/h 14.5 mph /  23.3 km/h 96 % 0.0 in /  0 mm
19:52 1.6 °F /  -16.9 °C 1.0 °F /  -17.2 °C 1015.5 in /  34384.8 hPa SSW 4.8 mph /  7.7 km/h 14.5 mph /  23.3 km/h 96 % 0.0 in /  0 mm
19:57 1.5 °F /  -16.9 °C 0.9 °F /  -17.3 °C 1015.5 in /  34384.8 hPa SSW 11.3 mph /  18.2 km/h 17.7 mph /  28.5 km/h 96 % 0.0 in /  0 mm
20:02 1.5 °F /  -16.9 °C 0.9 °F /  -17.3 °C 1015.5 in /  34384.8 hPa SSW 9.7 mph /  15.6 km/h 17.7 mph /  28.5 km/h 96 % 0.0 in /  0 mm
20:07 1.5 °F /  -16.9 °C 0.9 °F /  -17.3 °C 1015.1 in /  34371.3 hPa SSE 6.4 mph /  10.3 km/h 16.1 mph /  25.9 km/h 96 % 0.0 in /  0 mm
20:12 1.4 °F /  -17 °C 0.8 °F /  -17.3 °C 1015.1 in /  34371.3 hPa SE 4.8 mph /  7.7 km/h 16.1 mph /  25.9 km/h 96 % 0.0 in /  0 mm
20:22 1.4 °F /  -17 °C 0.8 °F /  -17.3 °C 1014.8 in /  34361.1 hPa South 6.4 mph /  10.3 km/h 16.1 mph /  25.9 km/h 96 % 0.0 in /  0 mm
20:27 1.4 °F /  -17 °C 0.8 °F /  -17.3 °C 1014.8 in /  34361.1 hPa SSE 3.2 mph /  5.1 km/h 16.1 mph /  25.9 km/h 96 % 0.0 in /  0 mm
20:32 1.4 °F /  -17 °C 0.8 °F /  -17.3 °C 1014.8 in /  34361.1 hPa SSE 3.2 mph /  5.1 km/h 16.1 mph /  25.9 km/h 96 % 0.0 in /  0 mm
20:37 1.5 °F /  -16.9 °C 1.1 °F /  -17.2 °C 1014.8 in /  34361.1 hPa SSE 3.2 mph /  5.1 km/h 14.5 mph /  23.3 km/h 97 % 0.0 in /  0 mm
20:47 1.5 °F /  -16.9 °C 1.1 °F /  -17.2 °C 1014.4 in /  34347.6 hPa SSE 3.2 mph /  5.1 km/h 16.1 mph /  25.9 km/h 97 % 0.0 in /  0 mm
20:52 1.5 °F /  -16.9 °C 1.1 °F /  -17.2 °C 1014.4 in /  34347.6 hPa SSE 3.2 mph /  5.1 km/h 16.1 mph /  25.9 km/h 97 % 0.0 in /  0 mm
21:02 1.5 °F /  -16.9 °C 1.1 °F /  -17.2 °C 1014.1 in /  34337.4 hPa SSE 6.4 mph /  10.3 km/h 12.9 mph /  20.8 km/h 97 % 0.0 in /  0 mm
21:12 1.6 °F /  -16.9 °C 1.2 °F /  -17.1 °C 1014.1 in /  34337.4 hPa SSE 3.2 mph /  5.1 km/h 17.7 mph /  28.5 km/h 97 % 0.0 in /  0 mm
21:17 1.6 °F /  -16.9 °C 1.2 °F /  -17.1 °C 1014.1 in /  34337.4 hPa SSW 3.2 mph /  5.1 km/h 17.7 mph /  28.5 km/h 97 % 0.0 in /  0 mm
21:22 1.6 °F /  -16.9 °C 1.2 °F /  -17.1 °C 1013.8 in /  34327.3 hPa SSW 3.2 mph /  5.1 km/h 12.9 mph /  20.8 km/h 97 % 0.0 in /  0 mm
21:27 1.5 °F /  -16.9 °C 1.1 °F /  -17.2 °C 1013.8 in /  34327.3 hPa SSE 3.2 mph /  5.1 km/h 11.3 mph /  18.2 km/h 97 % 0.0 in /  0 mm
21:32 1.5 °F /  -16.9 °C 1.1 °F /  -17.2 °C 1013.8 in /  34327.3 hPa SSW 1.6 mph /  2.6 km/h 11.3 mph /  18.2 km/h 97 % 0.0 in /  0 mm
21:37 1.4 °F /  -17 °C 1.0 °F /  -17.2 °C 1013.4 in /  34313.7 hPa Calm   11.3 mph /  18.2 km/h 97 % 0.0 in /  0 mm
21:42 1.4 °F /  -17 °C 1.0 °F /  -17.2 °C 1013.4 in /  34313.7 hPa SSW 4.8 mph /  7.7 km/h 11.3 mph /  18.2 km/h 97 % 0.0 in /  0 mm
21:47 1.3 °F /  -17.1 °C 0.9 °F /  -17.3 °C 1013.4 in /  34313.7 hPa SSW 3.2 mph /  5.1 km/h 11.3 mph /  18.2 km/h 97 % 0.0 in /  0 mm
21:52 1.3 °F /  -17.1 °C 0.9 °F /  -17.3 °C 1013.4 in /  34313.7 hPa SSW 6.4 mph /  10.3 km/h 11.3 mph /  18.2 km/h 97 % 0.0 in /  0 mm
22:02 1.2 °F /  -17.1 °C 0.8 °F /  -17.3 °C 1013.1 in /  34303.6 hPa South 4.8 mph /  7.7 km/h 11.3 mph /  18.2 km/h 97 % 0.0 in /  0 mm
22:07 1.2 °F /  -17.1 °C 0.8 °F /  -17.3 °C 1013.1 in /  34303.6 hPa SSW 3.2 mph /  5.1 km/h 11.3 mph /  18.2 km/h 97 % 0.0 in /  0 mm
22:12 1.1 °F /  -17.2 °C 0.7 °F /  -17.4 °C 1013.1 in /  34303.6 hPa SSE 1.6 mph /  2.6 km/h 11.3 mph /  18.2 km/h 97 % 0.0 in /  0 mm
22:17 1.1 °F /  -17.2 °C 0.7 °F /  -17.4 °C 1013.1 in /  34303.6 hPa South 3.2 mph /  5.1 km/h 11.3 mph /  18.2 km/h 97 % 0.0 in /  0 mm
22:22 1.0 °F /  -17.2 °C 0.6 °F /  -17.4 °C 1012.8 in /  34293.4 hPa South 3.2 mph /  5.1 km/h 11.3 mph /  18.2 km/h 97 % 0.0 in /  0 mm
22:27 1.0 °F /  -17.2 °C 0.6 °F /  -17.4 °C 1012.8 in /  34293.4 hPa SE 3.2 mph /  5.1 km/h 6.4 mph /  10.3 km/h 97 % 0.0 in /  0 mm
22:32 1.0 °F /  -17.2 °C 0.6 °F /  -17.4 °C 1012.8 in /  34293.4 hPa SSE 3.2 mph /  5.1 km/h 6.4 mph /  10.3 km/h 97 % 0.0 in /  0 mm
22:37 0.9 °F /  -17.3 °C 0.5 °F /  -17.5 °C 1012.8 in /  34293.4 hPa South 1.6 mph /  2.6 km/h 9.7 mph /  15.6 km/h 97 % 0.0 in /  0 mm
22:42 0.9 °F /  -17.3 °C 0.5 °F /  -17.5 °C 1012.8 in /  34293.4 hPa South 3.2 mph /  5.1 km/h 9.7 mph /  15.6 km/h 97 % 0.0 in /  0 mm
22:52 0.9 °F /  -17.3 °C 0.5 °F /  -17.5 °C 1012.4 in /  34279.9 hPa South 6.4 mph /  10.3 km/h 9.7 mph /  15.6 km/h 97 % 0.0 in /  0 mm
22:57 0.9 °F /  -17.3 °C 0.5 °F /  -17.5 °C 1012.4 in /  34279.9 hPa SSW 9.7 mph /  15.6 km/h 9.7 mph /  15.6 km/h 97 % 0.0 in /  0 mm
23:02 0.9 °F /  -17.3 °C 0.5 °F /  -17.5 °C 1012.4 in /  34279.9 hPa SSW 3.2 mph /  5.1 km/h 8.0 mph /  12.9 km/h 97 % 0.0 in /  0 mm
23:12 0.9 °F /  -17.3 °C 0.5 °F /  -17.5 °C 1012.4 in /  34279.9 hPa South 4.8 mph /  7.7 km/h 9.7 mph /  15.6 km/h 97 % 0.0 in /  0 mm
23:17 1.1 °F /  -17.2 °C 0.7 °F /  -17.4 °C 1012.1 in /  34269.7 hPa SSE 1.6 mph /  2.6 km/h 8.0 mph /  12.9 km/h 97 % 0.0 in /  0 mm
23:27 1.1 °F /  -17.2 °C 0.7 °F /  -17.4 °C 1012.1 in /  34269.7 hPa South 3.2 mph /  5.1 km/h 12.9 mph /  20.8 km/h 97 % 0.0 in /  0 mm
23:32 1.1 °F /  -17.2 °C 0.7 °F /  -17.4 °C 1012.1 in /  34269.7 hPa SSW 3.2 mph /  5.1 km/h 12.9 mph /  20.8 km/h 97 % 0.0 in /  0 mm
23:42 1.1 °F /  -17.2 °C 0.7 °F /  -17.4 °C 1011.7 in /  34256.2 hPa South 1.6 mph /  2.6 km/h 9.7 mph /  15.6 km/h 97 % 0.0 in /  0 mm
23:47 1.1 °F /  -17.2 °C 0.7 °F /  -17.4 °C 1011.7 in /  34256.2 hPa SSW 1.6 mph /  2.6 km/h 6.4 mph /  10.3 km/h 97 % 0.0 in /  0 mm
23:52 1.1 °F /  -17.2 °C 0.7 °F /  -17.4 °C 1011.7 in /  34256.2 hPa South 1.6 mph /  2.6 km/h 6.4 mph /  10.3 km/h 97 % 0.0 in /  0 mm
Meteo18
Compliments of Weather Underground - 4 mb

Script developed by  Jim McMurry - jmcmurry@mwt.net Adapted for the template by  Wim van der Kuil - Leuven-Template.eu

You find our weather info also at:

European Weather Network

Weather Underground

Equipment we use:

Weather-station
Davis Vue

Weather-program
Meteobridge

Weather-server
Raspberry PI 2 B+

Provider
1 and 1

Davis Vue

Meteobridge

Raspberry PI 2 B+

1 and 1